sensor_id;sensor_type;location;lat;lon;timestamp;P1;durP1;ratioP1;P2;durP2;ratioP2
23310;SDS011;11828;51.508;18.118;2024-03-23T00:52:57;17.20;;;11.05;;
23310;SDS011;11828;51.508;18.118;2024-03-23T00:55:25;19.02;;;10.52;;
23310;SDS011;11828;51.508;18.118;2024-03-23T00:57:52;20.27;;;11.32;;
23310;SDS011;11828;51.508;18.118;2024-03-23T01:00:21;16.98;;;10.43;;
23310;SDS011;11828;51.508;18.118;2024-03-23T01:02:48;17.98;;;10.75;;
23310;SDS011;11828;51.508;18.118;2024-03-23T01:05:17;20.40;;;12.05;;
23310;SDS011;11828;51.508;18.118;2024-03-23T01:07:44;21.52;;;11.73;;
23310;SDS011;11828;51.508;18.118;2024-03-23T01:10:13;19.40;;;10.77;;
23310;SDS011;11828;51.508;18.118;2024-03-23T01:12:39;18.90;;;11.00;;
23310;SDS011;11828;51.508;18.118;2024-03-23T01:15:08;17.60;;;10.80;;
23310;SDS011;11828;51.508;18.118;2024-03-23T01:17:35;19.98;;;10.95;;
23310;SDS011;11828;51.508;18.118;2024-03-23T01:20:04;19.75;;;11.05;;
23310;SDS011;11828;51.508;18.118;2024-03-23T01:22:34;18.02;;;10.10;;
23310;SDS011;11828;51.508;18.118;2024-03-23T01:25:03;18.67;;;10.45;;
23310;SDS011;11828;51.508;18.118;2024-03-23T01:27:30;20.45;;;11.70;;
23310;SDS011;11828;51.508;18.118;2024-03-23T01:29:59;18.13;;;10.60;;
23310;SDS011;11828;51.508;18.118;2024-03-23T01:32:26;17.10;;;10.15;;
23310;SDS011;11828;51.508;18.118;2024-03-23T01:34:54;17.40;;;10.13;;
23310;SDS011;11828;51.508;18.118;2024-03-23T01:37:21;19.63;;;10.45;;
23310;SDS011;11828;51.508;18.118;2024-03-23T01:39:51;16.08;;;10.15;;
23310;SDS011;11828;51.508;18.118;2024-03-23T01:42:18;16.05;;;9.90;;
23310;SDS011;11828;51.508;18.118;2024-03-23T01:44:46;14.05;;;9.27;;
23310;SDS011;11828;51.508;18.118;2024-03-23T01:47:13;17.20;;;9.90;;
23310;SDS011;11828;51.508;18.118;2024-03-23T01:49:41;16.75;;;9.98;;
23310;SDS011;11828;51.508;18.118;2024-03-23T01:52:08;18.23;;;10.40;;
23310;SDS011;11828;51.508;18.118;2024-03-23T01:54:36;18.05;;;10.68;;
23310;SDS011;11828;51.508;18.118;2024-03-23T01:57:05;15.48;;;9.38;;
23310;SDS011;11828;51.508;18.118;2024-03-23T01:59:34;18.08;;;10.60;;
23310;SDS011;11828;51.508;18.118;2024-03-23T02:02:01;17.70;;;10.75;;
23310;SDS011;11828;51.508;18.118;2024-03-23T02:04:30;17.05;;;10.50;;
23310;SDS011;11828;51.508;18.118;2024-03-23T02:06:56;16.95;;;10.15;;
23310;SDS011;11828;51.508;18.118;2024-03-23T02:09:24;20.77;;;11.15;;
23310;SDS011;11828;51.508;18.118;2024-03-23T02:11:51;16.45;;;9.52;;
23310;SDS011;11828;51.508;18.118;2024-03-23T02:14:21;19.50;;;10.45;;
23310;SDS011;11828;51.508;18.118;2024-03-23T02:16:48;17.88;;;10.43;;
23310;SDS011;11828;51.508;18.118;2024-03-23T02:19:16;18.85;;;10.75;;
23310;SDS011;11828;51.508;18.118;2024-03-23T02:21:43;18.40;;;11.38;;
23310;SDS011;11828;51.508;18.118;2024-03-23T02:24:14;16.17;;;10.50;;
23310;SDS011;11828;51.508;18.118;2024-03-23T02:26:40;17.45;;;10.55;;
23310;SDS011;11828;51.508;18.118;2024-03-23T02:29:09;18.90;;;11.15;;
23310;SDS011;11828;51.508;18.118;2024-03-23T02:31:35;21.52;;;11.57;;
23310;SDS011;11828;51.508;18.118;2024-03-23T02:34:04;18.98;;;11.15;;
23310;SDS011;11828;51.508;18.118;2024-03-23T02:36:31;18.70;;;11.05;;
23310;SDS011;11828;51.508;18.118;2024-03-23T02:38:59;19.42;;;10.80;;
23310;SDS011;11828;51.508;18.118;2024-03-23T02:41:27;18.60;;;11.23;;
23310;SDS011;11828;51.508;18.118;2024-03-23T02:43:56;22.30;;;13.50;;
23310;SDS011;11828;51.508;18.118;2024-03-23T02:46:23;22.73;;;13.70;;
23310;SDS011;11828;51.508;18.118;2024-03-23T02:48:51;23.95;;;14.50;;
23310;SDS011;11828;51.508;18.118;2024-03-23T02:51:18;25.27;;;14.88;;
23310;SDS011;11828;51.508;18.118;2024-03-23T02:53:46;22.58;;;13.57;;
23310;SDS011;11828;51.508;18.118;2024-03-23T02:56:13;20.95;;;13.13;;
23310;SDS011;11828;51.508;18.118;2024-03-23T02:58:43;20.52;;;12.70;;
23310;SDS011;11828;51.508;18.118;2024-03-23T03:01:10;18.33;;;11.02;;
23310;SDS011;11828;51.508;18.118;2024-03-23T03:03:39;19.23;;;11.07;;
23310;SDS011;11828;51.508;18.118;2024-03-23T03:06:05;18.67;;;10.68;;
23310;SDS011;11828;51.508;18.118;2024-03-23T03:08:34;19.60;;;10.88;;
23310;SDS011;11828;51.508;18.118;2024-03-23T03:11:01;19.65;;;12.00;;
23310;SDS011;11828;51.508;18.118;2024-03-23T03:13:29;22.45;;;12.25;;
23310;SDS011;11828;51.508;18.118;2024-03-23T03:15:57;17.52;;;10.20;;
23310;SDS011;11828;51.508;18.118;2024-03-23T03:18:26;17.85;;;10.30;;
23310;SDS011;11828;51.508;18.118;2024-03-23T03:20:54;20.23;;;10.75;;
23310;SDS011;11828;51.508;18.118;2024-03-23T03:23:23;20.25;;;11.82;;
23310;SDS011;11828;51.508;18.118;2024-03-23T03:25:49;23.33;;;13.10;;
23310;SDS011;11828;51.508;18.118;2024-03-23T03:28:18;21.40;;;11.48;;
23310;SDS011;11828;51.508;18.118;2024-03-23T03:30:46;22.13;;;12.57;;
23310;SDS011;11828;51.508;18.118;2024-03-23T03:33:16;20.58;;;11.95;;
23310;SDS011;11828;51.508;18.118;2024-03-23T03:35:42;20.70;;;12.15;;
23310;SDS011;11828;51.508;18.118;2024-03-23T03:38:11;23.90;;;13.98;;
23310;SDS011;11828;51.508;18.118;2024-03-23T03:40:38;24.08;;;13.98;;
23310;SDS011;11828;51.508;18.118;2024-03-23T03:43:06;21.52;;;12.23;;
23310;SDS011;11828;51.508;18.118;2024-03-23T03:45:33;20.73;;;11.70;;
23310;SDS011;11828;51.508;18.118;2024-03-23T03:48:02;18.27;;;10.43;;
23310;SDS011;11828;51.508;18.118;2024-03-23T03:50:31;17.48;;;11.30;;
23310;SDS011;11828;51.508;18.118;2024-03-23T03:52:59;19.30;;;11.82;;
23310;SDS011;11828;51.508;18.118;2024-03-23T03:55:26;19.98;;;11.90;;
23310;SDS011;11828;51.508;18.118;2024-03-23T03:57:55;24.45;;;14.05;;
23310;SDS011;11828;51.508;18.118;2024-03-23T04:00:21;20.80;;;13.00;;
23310;SDS011;11828;51.508;18.118;2024-03-23T04:02:50;22.95;;;13.50;;
23310;SDS011;11828;51.508;18.118;2024-03-23T04:05:17;23.63;;;13.68;;
23310;SDS011;11828;51.508;18.118;2024-03-23T04:07:47;24.58;;;13.80;;
23310;SDS011;11828;51.508;18.118;2024-03-23T04:10:14;24.17;;;14.10;;
23310;SDS011;11828;51.508;18.118;2024-03-23T04:12:43;21.98;;;12.52;;
23310;SDS011;11828;51.508;18.118;2024-03-23T04:15:11;21.48;;;13.25;;
23310;SDS011;11828;51.508;18.118;2024-03-23T04:17:39;20.55;;;11.60;;
23310;SDS011;11828;51.508;18.118;2024-03-23T04:20:08;19.88;;;11.60;;
23310;SDS011;11828;51.508;18.118;2024-03-23T04:22:39;17.98;;;11.05;;
23310;SDS011;11828;51.508;18.118;2024-03-23T04:25:08;17.77;;;11.02;;
23310;SDS011;11828;51.508;18.118;2024-03-23T04:27:36;21.27;;;11.52;;
23310;SDS011;11828;51.508;18.118;2024-03-23T04:30:03;25.23;;;13.73;;
23310;SDS011;11828;51.508;18.118;2024-03-23T04:32:37;20.77;;;12.07;;
23310;SDS011;11828;51.508;18.118;2024-03-23T04:35:04;21.52;;;12.30;;
23310;SDS011;11828;51.508;18.118;2024-03-23T04:37:35;18.63;;;11.15;;
23310;SDS011;11828;51.508;18.118;2024-03-23T04:40:03;19.95;;;12.07;;
23310;SDS011;11828;51.508;18.118;2024-03-23T04:42:36;21.42;;;12.68;;
23310;SDS011;11828;51.508;18.118;2024-03-23T04:45:04;20.83;;;12.43;;
23310;SDS011;11828;51.508;18.118;2024-03-23T04:47:34;19.98;;;11.57;;
23310;SDS011;11828;51.508;18.118;2024-03-23T04:50:03;17.42;;;10.73;;
23310;SDS011;11828;51.508;18.118;2024-03-23T04:52:32;20.20;;;11.45;;
23310;SDS011;11828;51.508;18.118;2024-03-23T04:55:00;16.85;;;9.98;;
23310;SDS011;11828;51.508;18.118;2024-03-23T04:57:28;18.67;;;9.88;;
23310;SDS011;11828;51.508;18.118;2024-03-23T04:59:57;15.45;;;9.05;;
23310;SDS011;11828;51.508;18.118;2024-03-23T05:02:24;18.45;;;11.00;;
23310;SDS011;11828;51.508;18.118;2024-03-23T05:04:52;16.35;;;10.45;;
23310;SDS011;11828;51.508;18.118;2024-03-23T05:07:19;16.25;;;10.38;;
23310;SDS011;11828;51.508;18.118;2024-03-23T05:09:47;15.30;;;9.95;;
23310;SDS011;11828;51.508;18.118;2024-03-23T05:12:14;14.95;;;9.25;;
23310;SDS011;11828;51.508;18.118;2024-03-23T05:14:42;15.05;;;9.35;;
23310;SDS011;11828;51.508;18.118;2024-03-23T05:17:11;14.77;;;9.40;;
23310;SDS011;11828;51.508;18.118;2024-03-23T05:19:39;14.65;;;9.23;;
23310;SDS011;11828;51.508;18.118;2024-03-23T05:22:06;15.23;;;9.60;;
23310;SDS011;11828;51.508;18.118;2024-03-23T05:24:34;16.92;;;10.35;;
23310;SDS011;11828;51.508;18.118;2024-03-23T05:27:02;19.30;;;11.93;;
23310;SDS011;11828;51.508;18.118;2024-03-23T05:29:31;21.65;;;14.93;;
23310;SDS011;11828;51.508;18.118;2024-03-23T05:31:58;29.15;;;20.05;;
23310;SDS011;11828;51.508;18.118;2024-03-23T05:34:28;24.05;;;17.50;;
23310;SDS011;11828;51.508;18.118;2024-03-23T05:36:55;25.55;;;17.58;;
23310;SDS011;11828;51.508;18.118;2024-03-23T05:39:22;46.25;;;28.90;;
23310;SDS011;11828;51.508;18.118;2024-03-23T05:41:49;30.88;;;20.02;;
23310;SDS011;11828;51.508;18.118;2024-03-23T05:44:17;22.73;;;13.80;;
23310;SDS011;11828;51.508;18.118;2024-03-23T05:46:45;20.05;;;12.30;;
23310;SDS011;11828;51.508;18.118;2024-03-23T05:49:13;22.02;;;12.32;;
23310;SDS011;11828;51.508;18.118;2024-03-23T05:51:42;26.73;;;15.55;;
23310;SDS011;11828;51.508;18.118;2024-03-23T05:54:11;21.15;;;13.15;;
23310;SDS011;11828;51.508;18.118;2024-03-23T05:56:38;20.20;;;12.40;;
23310;SDS011;11828;51.508;18.118;2024-03-23T05:59:06;21.52;;;12.52;;
23310;SDS011;11828;51.508;18.118;2024-03-23T06:01:33;21.23;;;11.48;;
23310;SDS011;11828;51.508;18.118;2024-03-23T06:04:01;17.95;;;10.88;;
23310;SDS011;11828;51.508;18.118;2024-03-23T06:06:28;17.30;;;9.73;;
23310;SDS011;11828;51.508;18.118;2024-03-23T06:08:58;21.55;;;12.88;;
23310;SDS011;11828;51.508;18.118;2024-03-23T06:11:25;19.55;;;12.15;;
23310;SDS011;11828;51.508;18.118;2024-03-23T06:13:54;17.67;;;11.13;;
23310;SDS011;11828;51.508;18.118;2024-03-23T06:16:21;18.23;;;11.43;;
23310;SDS011;11828;51.508;18.118;2024-03-23T06:18:50;18.65;;;11.10;;
23310;SDS011;11828;51.508;18.118;2024-03-23T06:21:17;16.40;;;10.90;;
23310;SDS011;11828;51.508;18.118;2024-03-23T06:23:45;15.77;;;10.80;;
23310;SDS011;11828;51.508;18.118;2024-03-23T06:26:18;16.52;;;10.55;;
23310;SDS011;11828;51.508;18.118;2024-03-23T06:28:45;19.00;;;11.93;;
23310;SDS011;11828;51.508;18.118;2024-03-23T06:31:14;18.10;;;11.45;;
23310;SDS011;11828;51.508;18.118;2024-03-23T06:33:40;18.38;;;10.80;;
23310;SDS011;11828;51.508;18.118;2024-03-23T06:36:09;16.50;;;10.35;;
23310;SDS011;11828;51.508;18.118;2024-03-23T06:38:36;17.77;;;10.27;;
23310;SDS011;11828;51.508;18.118;2024-03-23T06:41:04;16.20;;;9.93;;
23310;SDS011;11828;51.508;18.118;2024-03-23T06:43:32;17.33;;;9.57;;
23310;SDS011;11828;51.508;18.118;2024-03-23T06:46:01;15.52;;;9.75;;
23310;SDS011;11828;51.508;18.118;2024-03-23T06:48:30;18.15;;;10.88;;
23310;SDS011;11828;51.508;18.118;2024-03-23T06:50:58;15.80;;;9.20;;
23310;SDS011;11828;51.508;18.118;2024-03-23T06:53:25;20.27;;;11.45;;
23310;SDS011;11828;51.508;18.118;2024-03-23T06:55:53;16.02;;;9.65;;
23310;SDS011;11828;51.508;18.118;2024-03-23T06:58:20;21.33;;;12.73;;
23310;SDS011;11828;51.508;18.118;2024-03-23T07:00:52;19.27;;;12.45;;
23310;SDS011;11828;51.508;18.118;2024-03-23T07:03:19;20.10;;;12.52;;
23310;SDS011;11828;51.508;18.118;2024-03-23T07:05:49;20.27;;;13.85;;
23310;SDS011;11828;51.508;18.118;2024-03-23T07:08:16;23.73;;;15.13;;
23310;SDS011;11828;51.508;18.118;2024-03-23T07:10:47;24.42;;;15.40;;
23310;SDS011;11828;51.508;18.118;2024-03-23T07:13:14;19.25;;;12.75;;
23310;SDS011;11828;51.508;18.118;2024-03-23T07:15:43;20.67;;;12.63;;
23310;SDS011;11828;51.508;18.118;2024-03-23T07:18:20;18.38;;;10.20;;
23310;SDS011;11828;51.508;18.118;2024-03-23T07:20:52;17.45;;;10.82;;
23310;SDS011;11828;51.508;18.118;2024-03-23T07:23:19;18.15;;;9.85;;
23310;SDS011;11828;51.508;18.118;2024-03-23T07:25:55;15.77;;;9.40;;
23310;SDS011;11828;51.508;18.118;2024-03-23T07:28:23;15.07;;;9.95;;
23310;SDS011;11828;51.508;18.118;2024-03-23T07:31:11;14.65;;;9.60;;
23310;SDS011;11828;51.508;18.118;2024-03-23T07:33:41;13.02;;;9.23;;
23310;SDS011;11828;51.508;18.118;2024-03-23T07:36:11;14.68;;;10.45;;
23310;SDS011;11828;51.508;18.118;2024-03-23T07:38:39;15.57;;;10.13;;
23310;SDS011;11828;51.508;18.118;2024-03-23T07:41:09;15.27;;;10.55;;
23310;SDS011;11828;51.508;18.118;2024-03-23T07:43:37;14.45;;;9.82;;
23310;SDS011;11828;51.508;18.118;2024-03-23T07:46:08;14.00;;;10.23;;
23310;SDS011;11828;51.508;18.118;2024-03-23T07:48:34;12.82;;;9.55;;
23310;SDS011;11828;51.508;18.118;2024-03-23T07:51:03;11.77;;;9.38;;
23310;SDS011;11828;51.508;18.118;2024-03-23T07:53:33;13.98;;;9.88;;
23310;SDS011;11828;51.508;18.118;2024-03-23T07:56:03;12.82;;;10.77;;
23310;SDS011;11828;51.508;18.118;2024-03-23T07:58:31;12.88;;;9.98;;
23310;SDS011;11828;51.508;18.118;2024-03-23T08:01:03;15.27;;;10.95;;
23310;SDS011;11828;51.508;18.118;2024-03-23T08:03:34;11.43;;;7.97;;
23310;SDS011;11828;51.508;18.118;2024-03-23T08:06:06;10.48;;;7.80;;
23310;SDS011;11828;51.508;18.118;2024-03-23T08:08:34;8.32;;;6.88;;
23310;SDS011;11828;51.508;18.118;2024-03-23T08:11:03;10.38;;;8.00;;
23310;SDS011;11828;51.508;18.118;2024-03-23T08:13:30;10.15;;;8.40;;
23310;SDS011;11828;51.508;18.118;2024-03-23T08:16:00;10.68;;;7.60;;
23310;SDS011;11828;51.508;18.118;2024-03-23T08:18:28;9.55;;;7.60;;
23310;SDS011;11828;51.508;18.118;2024-03-23T08:20:59;7.90;;;6.63;;
23310;SDS011;11828;51.508;18.118;2024-03-23T08:23:27;9.48;;;7.68;;
23310;SDS011;11828;51.508;18.118;2024-03-23T08:25:57;9.07;;;6.82;;
23310;SDS011;11828;51.508;18.118;2024-03-23T08:28:24;11.90;;;8.57;;
23310;SDS011;11828;51.508;18.118;2024-03-23T08:30:53;11.73;;;9.05;;
23310;SDS011;11828;51.508;18.118;2024-03-23T08:33:21;14.00;;;9.05;;
23310;SDS011;11828;51.508;18.118;2024-03-23T08:35:53;9.48;;;7.20;;
23310;SDS011;11828;51.508;18.118;2024-03-23T08:38:22;10.88;;;7.32;;
23310;SDS011;11828;51.508;18.118;2024-03-23T08:40:56;9.32;;;6.90;;
23310;SDS011;11828;51.508;18.118;2024-03-23T08:43:23;7.70;;;6.32;;
23310;SDS011;11828;51.508;18.118;2024-03-23T08:45:51;10.45;;;6.45;;
23310;SDS011;11828;51.508;18.118;2024-03-23T08:48:18;8.57;;;7.18;;
23310;SDS011;11828;51.508;18.118;2024-03-23T08:50:47;8.02;;;7.13;;
23310;SDS011;11828;51.508;18.118;2024-03-23T08:53:28;8.98;;;6.25;;
23310;SDS011;11828;51.508;18.118;2024-03-23T08:55:57;9.02;;;6.88;;
23310;SDS011;11828;51.508;18.118;2024-03-23T08:58:26;10.13;;;7.10;;
23310;SDS011;11828;51.508;18.118;2024-03-23T09:00:56;11.18;;;7.28;;
23310;SDS011;11828;51.508;18.118;2024-03-23T09:03:29;10.10;;;6.80;;
23310;SDS011;11828;51.508;18.118;2024-03-23T09:05:56;9.48;;;7.50;;
23310;SDS011;11828;51.508;18.118;2024-03-23T09:08:23;10.05;;;7.20;;
23310;SDS011;11828;51.508;18.118;2024-03-23T09:10:52;10.82;;;7.75;;
23310;SDS011;11828;51.508;18.118;2024-03-23T09:13:20;9.93;;;7.57;;
23310;SDS011;11828;51.508;18.118;2024-03-23T09:15:48;9.82;;;7.28;;
23310;SDS011;11828;51.508;18.118;2024-03-23T09:18:16;11.40;;;8.50;;
23310;SDS011;11828;51.508;18.118;2024-03-23T09:20:45;11.27;;;7.45;;
23310;SDS011;11828;51.508;18.118;2024-03-23T09:23:12;13.38;;;9.23;;
23310;SDS011;11828;51.508;18.118;2024-03-23T09:25:40;9.45;;;7.10;;
23310;SDS011;11828;51.508;18.118;2024-03-23T09:28:09;7.80;;;6.53;;
23310;SDS011;11828;51.508;18.118;2024-03-23T09:30:37;9.23;;;7.55;;
23310;SDS011;11828;51.508;18.118;2024-03-23T09:33:08;11.20;;;8.20;;
23310;SDS011;11828;51.508;18.118;2024-03-23T09:35:37;11.40;;;7.13;;
23310;SDS011;11828;51.508;18.118;2024-03-23T09:38:04;11.30;;;8.80;;
23310;SDS011;11828;51.508;18.118;2024-03-23T09:40:34;8.93;;;7.70;;
23310;SDS011;11828;51.508;18.118;2024-03-23T09:43:05;10.30;;;7.93;;
23310;SDS011;11828;51.508;18.118;2024-03-23T09:45:38;11.70;;;9.65;;
23310;SDS011;11828;51.508;18.118;2024-03-23T09:48:07;13.10;;;9.35;;
23310;SDS011;11828;51.508;18.118;2024-03-23T09:50:36;11.77;;;8.88;;
23310;SDS011;11828;51.508;18.118;2024-03-23T09:53:04;11.98;;;8.30;;
23310;SDS011;11828;51.508;18.118;2024-03-23T09:55:33;10.38;;;8.00;;
23310;SDS011;11828;51.508;18.118;2024-03-23T09:58:01;10.32;;;8.10;;
23310;SDS011;11828;51.508;18.118;2024-03-23T10:00:30;9.80;;;7.82;;
23310;SDS011;11828;51.508;18.118;2024-03-23T10:02:59;11.68;;;8.60;;
23310;SDS011;11828;51.508;18.118;2024-03-23T10:05:28;12.77;;;9.35;;
23310;SDS011;11828;51.508;18.118;2024-03-23T10:07:57;14.07;;;9.77;;
23310;SDS011;11828;51.508;18.118;2024-03-23T10:10:24;16.55;;;12.65;;
23310;SDS011;11828;51.508;18.118;2024-03-23T10:12:51;15.88;;;11.32;;
23310;SDS011;11828;51.508;18.118;2024-03-23T10:15:20;12.30;;;9.65;;
23310;SDS011;11828;51.508;18.118;2024-03-23T10:17:49;13.98;;;10.25;;
23310;SDS011;11828;51.508;18.118;2024-03-23T10:20:20;12.75;;;9.35;;
23310;SDS011;11828;51.508;18.118;2024-03-23T10:22:48;13.40;;;10.00;;
23310;SDS011;11828;51.508;18.118;2024-03-23T10:25:16;11.25;;;8.77;;
23310;SDS011;11828;51.508;18.118;2024-03-23T10:27:44;14.60;;;9.35;;
23310;SDS011;11828;51.508;18.118;2024-03-23T10:30:25;13.57;;;9.48;;
23310;SDS011;11828;51.508;18.118;2024-03-23T10:32:57;13.73;;;10.02;;
23310;SDS011;11828;51.508;18.118;2024-03-23T10:35:37;15.60;;;10.40;;
23310;SDS011;11828;51.508;18.118;2024-03-23T10:38:05;15.75;;;10.95;;
23310;SDS011;11828;51.508;18.118;2024-03-23T10:40:36;13.85;;;9.88;;
23310;SDS011;11828;51.508;18.118;2024-03-23T10:43:05;20.00;;;10.88;;
23310;SDS011;11828;51.508;18.118;2024-03-23T10:45:35;15.77;;;11.02;;
23310;SDS011;11828;51.508;18.118;2024-03-23T10:48:02;16.40;;;11.48;;
23310;SDS011;11828;51.508;18.118;2024-03-23T10:50:30;15.50;;;11.10;;
23310;SDS011;11828;51.508;18.118;2024-03-23T10:52:59;13.52;;;9.60;;
23310;SDS011;11828;51.508;18.118;2024-03-23T10:55:27;16.05;;;10.18;;
23310;SDS011;11828;51.508;18.118;2024-03-23T10:57:56;13.35;;;9.30;;
23310;SDS011;11828;51.508;18.118;2024-03-23T11:00:26;11.82;;;8.80;;
23310;SDS011;11828;51.508;18.118;2024-03-23T11:02:53;12.95;;;8.68;;
23310;SDS011;11828;51.508;18.118;2024-03-23T11:05:30;13.45;;;9.32;;
23310;SDS011;11828;51.508;18.118;2024-03-23T11:07:59;16.02;;;10.18;;
23310;SDS011;11828;51.508;18.118;2024-03-23T11:10:27;15.55;;;9.80;;
23310;SDS011;11828;51.508;18.118;2024-03-23T11:12:55;12.98;;;8.52;;
23310;SDS011;11828;51.508;18.118;2024-03-23T11:15:24;12.48;;;8.23;;
23310;SDS011;11828;51.508;18.118;2024-03-23T11:18:03;13.80;;;9.00;;
23310;SDS011;11828;51.508;18.118;2024-03-23T11:20:33;12.32;;;8.18;;
23310;SDS011;11828;51.508;18.118;2024-03-23T11:23:02;14.70;;;8.90;;
23310;SDS011;11828;51.508;18.118;2024-03-23T11:25:33;12.38;;;8.45;;
23310;SDS011;11828;51.508;18.118;2024-03-23T11:28:10;11.00;;;8.00;;
23310;SDS011;11828;51.508;18.118;2024-03-23T11:30:40;14.30;;;8.50;;
23310;SDS011;11828;51.508;18.118;2024-03-23T11:33:08;11.43;;;7.90;;
23310;SDS011;11828;51.508;18.118;2024-03-23T11:35:37;13.20;;;8.07;;
23310;SDS011;11828;51.508;18.118;2024-03-23T11:38:08;11.30;;;8.07;;
23310;SDS011;11828;51.508;18.118;2024-03-23T11:40:37;12.20;;;7.65;;
23310;SDS011;11828;51.508;18.118;2024-03-23T11:43:06;11.63;;;8.20;;
23310;SDS011;11828;51.508;18.118;2024-03-23T11:45:36;13.05;;;7.88;;
23310;SDS011;11828;51.508;18.118;2024-03-23T11:48:12;11.68;;;7.70;;
23310;SDS011;11828;51.508;18.118;2024-03-23T11:50:43;10.13;;;7.63;;
23310;SDS011;11828;51.508;18.118;2024-03-23T11:53:16;10.90;;;7.50;;
23310;SDS011;11828;51.508;18.118;2024-03-23T11:55:46;12.07;;;8.40;;
23310;SDS011;11828;51.508;18.118;2024-03-23T11:58:15;13.77;;;9.80;;
23310;SDS011;11828;51.508;18.118;2024-03-23T12:00:51;11.90;;;9.10;;
23310;SDS011;11828;51.508;18.118;2024-03-23T12:03:18;13.23;;;9.10;;
23310;SDS011;11828;51.508;18.118;2024-03-23T12:05:48;11.00;;;8.48;;
23310;SDS011;11828;51.508;18.118;2024-03-23T12:08:21;11.40;;;8.40;;
23310;SDS011;11828;51.508;18.118;2024-03-23T12:10:50;10.48;;;7.90;;
23310;SDS011;11828;51.508;18.118;2024-03-23T12:13:19;11.13;;;7.22;;
23310;SDS011;11828;51.508;18.118;2024-03-23T12:15:49;8.85;;;6.78;;
23310;SDS011;11828;51.508;18.118;2024-03-23T12:18:18;9.55;;;7.38;;
23310;SDS011;11828;51.508;18.118;2024-03-23T12:20:51;9.68;;;7.05;;
23310;SDS011;11828;51.508;18.118;2024-03-23T12:23:18;10.05;;;7.72;;
23310;SDS011;11828;51.508;18.118;2024-03-23T12:25:48;11.65;;;8.05;;
23310;SDS011;11828;51.508;18.118;2024-03-23T12:28:15;9.90;;;7.30;;
23310;SDS011;11828;51.508;18.118;2024-03-23T12:30:44;10.48;;;7.28;;
23310;SDS011;11828;51.508;18.118;2024-03-23T12:33:11;9.95;;;6.72;;
23310;SDS011;11828;51.508;18.118;2024-03-23T12:35:39;9.48;;;6.78;;
23310;SDS011;11828;51.508;18.118;2024-03-23T12:38:06;10.50;;;7.20;;
23310;SDS011;11828;51.508;18.118;2024-03-23T12:40:35;8.18;;;6.32;;
23310;SDS011;11828;51.508;18.118;2024-03-23T12:43:03;8.82;;;6.22;;
23310;SDS011;11828;51.508;18.118;2024-03-23T12:45:32;8.18;;;6.10;;
23310;SDS011;11828;51.508;18.118;2024-03-23T12:48:00;7.78;;;6.20;;
23310;SDS011;11828;51.508;18.118;2024-03-23T12:50:28;11.48;;;7.30;;
23310;SDS011;11828;51.508;18.118;2024-03-23T12:52:55;9.77;;;6.70;;
23310;SDS011;11828;51.508;18.118;2024-03-23T12:55:23;8.77;;;7.07;;
23310;SDS011;11828;51.508;18.118;2024-03-23T12:57:51;9.00;;;6.38;;
23310;SDS011;11828;51.508;18.118;2024-03-23T13:00:20;9.20;;;6.63;;
23310;SDS011;11828;51.508;18.118;2024-03-23T13:02:47;11.45;;;8.30;;
23310;SDS011;11828;51.508;18.118;2024-03-23T13:05:15;11.55;;;8.40;;
23310;SDS011;11828;51.508;18.118;2024-03-23T13:07:42;13.75;;;8.90;;
23310;SDS011;11828;51.508;18.118;2024-03-23T13:10:10;11.85;;;8.52;;
23310;SDS011;11828;51.508;18.118;2024-03-23T13:12:37;13.23;;;9.13;;
23310;SDS011;11828;51.508;18.118;2024-03-23T13:15:08;14.52;;;9.88;;
23310;SDS011;11828;51.508;18.118;2024-03-23T13:17:35;12.60;;;8.82;;
23310;SDS011;11828;51.508;18.118;2024-03-23T13:20:04;12.23;;;8.55;;
23310;SDS011;11828;51.508;18.118;2024-03-23T13:22:39;10.77;;;6.78;;
23310;SDS011;11828;51.508;18.118;2024-03-23T13:25:07;10.90;;;6.43;;
23310;SDS011;11828;51.508;18.118;2024-03-23T13:27:36;8.95;;;6.43;;
23310;SDS011;11828;51.508;18.118;2024-03-23T13:30:05;11.82;;;7.47;;
23310;SDS011;11828;51.508;18.118;2024-03-23T13:32:37;10.65;;;7.22;;
23310;SDS011;11828;51.508;18.118;2024-03-23T13:35:05;11.48;;;6.93;;
23310;SDS011;11828;51.508;18.118;2024-03-23T13:37:34;7.03;;;5.10;;
23310;SDS011;11828;51.508;18.118;2024-03-23T13:40:02;8.50;;;5.60;;
23310;SDS011;11828;51.508;18.118;2024-03-23T13:42:31;9.18;;;5.78;;
23310;SDS011;11828;51.508;18.118;2024-03-23T13:44:59;8.27;;;5.70;;
23310;SDS011;11828;51.508;18.118;2024-03-23T13:47:28;8.43;;;5.93;;
23310;SDS011;11828;51.508;18.118;2024-03-23T13:49:56;10.43;;;6.63;;
23310;SDS011;11828;51.508;18.118;2024-03-23T13:52:23;11.50;;;7.38;;
23310;SDS011;11828;51.508;18.118;2024-03-23T13:54:51;10.07;;;7.03;;
23310;SDS011;11828;51.508;18.118;2024-03-23T13:57:19;12.32;;;8.07;;
23310;SDS011;11828;51.508;18.118;2024-03-23T13:59:48;11.60;;;7.82;;
23310;SDS011;11828;51.508;18.118;2024-03-23T14:02:15;12.55;;;8.02;;
23310;SDS011;11828;51.508;18.118;2024-03-23T14:04:45;11.75;;;8.02;;
23310;SDS011;11828;51.508;18.118;2024-03-23T14:07:12;9.50;;;7.00;;
23310;SDS011;11828;51.508;18.118;2024-03-23T14:09:42;9.73;;;7.25;;
23310;SDS011;11828;51.508;18.118;2024-03-23T14:12:09;9.48;;;6.78;;
23310;SDS011;11828;51.508;18.118;2024-03-23T14:14:37;12.02;;;7.93;;
23310;SDS011;11828;51.508;18.118;2024-03-23T14:17:04;10.68;;;7.38;;
23310;SDS011;11828;51.508;18.118;2024-03-23T14:19:32;11.25;;;7.20;;
23310;SDS011;11828;51.508;18.118;2024-03-23T14:22:01;10.23;;;7.43;;
23310;SDS011;11828;51.508;18.118;2024-03-23T14:24:29;7.97;;;5.95;;
23310;SDS011;11828;51.508;18.118;2024-03-23T14:26:59;11.98;;;7.47;;
23310;SDS011;11828;51.508;18.118;2024-03-23T14:29:30;10.07;;;8.20;;
23310;SDS011;11828;51.508;18.118;2024-03-23T14:31:59;7.82;;;6.55;;
23310;SDS011;11828;51.508;18.118;2024-03-23T14:34:27;8.35;;;6.07;;
23310;SDS011;11828;51.508;18.118;2024-03-23T14:36:54;6.35;;;4.93;;
23310;SDS011;11828;51.508;18.118;2024-03-23T14:39:24;8.48;;;5.28;;
23310;SDS011;11828;51.508;18.118;2024-03-23T14:41:51;7.72;;;4.45;;
23310;SDS011;11828;51.508;18.118;2024-03-23T14:44:19;7.55;;;4.60;;
23310;SDS011;11828;51.508;18.118;2024-03-23T14:46:46;7.53;;;4.40;;
23310;SDS011;11828;51.508;18.118;2024-03-23T14:49:15;7.55;;;5.10;;
23310;SDS011;11828;51.508;18.118;2024-03-23T14:51:42;9.77;;;5.32;;
23310;SDS011;11828;51.508;18.118;2024-03-23T14:54:11;7.63;;;4.38;;
23310;SDS011;11828;51.508;18.118;2024-03-23T14:56:40;7.00;;;4.30;;
23310;SDS011;11828;51.508;18.118;2024-03-23T14:59:08;7.50;;;4.63;;
23310;SDS011;11828;51.508;18.118;2024-03-23T15:01:35;9.60;;;5.50;;
23310;SDS011;11828;51.508;18.118;2024-03-23T15:04:03;9.68;;;5.07;;
23310;SDS011;11828;51.508;18.118;2024-03-23T15:06:31;9.32;;;5.38;;
23310;SDS011;11828;51.508;18.118;2024-03-23T15:09:00;10.07;;;4.53;;
23310;SDS011;11828;51.508;18.118;2024-03-23T15:11:27;15.23;;;7.70;;
23310;SDS011;11828;51.508;18.118;2024-03-23T15:13:56;11.02;;;6.07;;
23310;SDS011;11828;51.508;18.118;2024-03-23T15:16:23;8.35;;;4.60;;
23310;SDS011;11828;51.508;18.118;2024-03-23T15:18:51;10.35;;;5.13;;